createdAt,value
2023-09-27T00:01:00.161Z,19.13
2023-09-27T00:03:09.212Z,28.25
2023-09-27T00:05:12.864Z,21.02
2023-09-27T00:07:15.360Z,19.40
2023-09-27T00:09:17.786Z,24.58
2023-09-27T00:11:20.676Z,18.08
2023-09-27T00:13:23.416Z,17.73
2023-09-27T00:15:25.723Z,19.50
2023-09-27T00:17:27.883Z,19.63
2023-09-27T00:19:31.973Z,21.85
2023-09-27T00:21:34.388Z,20.95
2023-09-27T00:23:36.908Z,20.42
2023-09-27T00:25:39.117Z,26.20
2023-09-27T00:27:43.140Z,21.13
2023-09-27T00:29:46.830Z,23.92
2023-09-27T00:31:49.295Z,29.65
2023-09-27T00:33:51.716Z,16.90
2023-09-27T00:35:53.900Z,19.75
2023-09-27T00:37:56.485Z,16.88
2023-09-27T00:39:58.672Z,20.88
2023-09-27T00:42:00.943Z,24.38
2023-09-27T00:44:03.653Z,26.48
2023-09-27T00:46:07.684Z,20.75
2023-09-27T00:48:10.586Z,19.05
2023-09-27T00:50:12.844Z,21.35
2023-09-27T00:52:15.386Z,21.27
2023-09-27T00:54:17.497Z,18.42
2023-09-27T00:56:20.140Z,22.10
2023-09-27T00:58:22.795Z,20.73
2023-09-27T01:00:25.330Z,18.77
2023-09-27T01:02:28.108Z,21.30
2023-09-27T01:04:31.268Z,17.35
2023-09-27T01:06:35.068Z,17.50
2023-09-27T01:08:37.549Z,19.35
2023-09-27T01:10:40.225Z,16.67
2023-09-27T01:12:42.906Z,16.40
2023-09-27T01:14:46.421Z,17.90
2023-09-27T01:16:48.965Z,20.52
2023-09-27T01:18:51.168Z,19.10
2023-09-27T01:20:53.689Z,20.60
2023-09-27T01:22:58.204Z,20.63
2023-09-27T01:25:04.038Z,18.65
2023-09-27T01:27:10.741Z,17.23
2023-09-27T01:29:12.971Z,26.35
2023-09-27T01:31:15.459Z,22.00
2023-09-27T01:33:17.861Z,20.00
2023-09-27T01:35:20.391Z,17.90
2023-09-27T01:37:22.554Z,19.15
2023-09-27T01:39:25.871Z,19.55
2023-09-27T01:41:28.022Z,27.58
2023-09-27T01:43:30.576Z,20.05
2023-09-27T01:45:33.183Z,22.75
2023-09-27T01:47:35.406Z,19.75
2023-09-27T01:49:37.842Z,22.23
2023-09-27T01:51:40.599Z,17.90
2023-09-27T01:53:43.122Z,19.10
2023-09-27T01:55:45.902Z,19.20
2023-09-27T01:57:48.791Z,22.52
2023-09-27T01:59:50.975Z,23.30
2023-09-27T02:01:53.481Z,26.10
2023-09-27T02:03:55.729Z,19.98
2023-09-27T02:05:59.157Z,19.02
2023-09-27T02:08:01.636Z,21.70
2023-09-27T02:10:04.261Z,20.58
2023-09-27T02:12:06.610Z,22.33
2023-09-27T02:14:09.042Z,21.92
2023-09-27T02:16:11.185Z,22.30
2023-09-27T02:18:13.671Z,20.50
2023-09-27T02:20:19.417Z,23.10
2023-09-27T02:22:22.376Z,22.33
2023-09-27T02:24:24.625Z,21.33
2023-09-27T02:26:27.088Z,20.55
2023-09-27T02:28:29.279Z,25.25
2023-09-27T02:30:31.731Z,24.48
2023-09-27T02:32:35.009Z,23.13
2023-09-27T02:34:37.514Z,23.13
2023-09-27T02:36:40.008Z,23.60
2023-09-27T02:38:42.339Z,21.60
2023-09-27T02:40:44.888Z,27.55
2023-09-27T02:42:50.549Z,28.52
2023-09-27T02:44:52.964Z,24.27
2023-09-27T02:46:56.602Z,21.73
2023-09-27T02:48:59.191Z,23.92
2023-09-27T02:51:01.406Z,22.20
2023-09-27T02:53:03.996Z,25.63
2023-09-27T02:55:10.668Z,21.58
2023-09-27T02:57:14.457Z,20.05
2023-09-27T02:59:17.162Z,25.98
2023-09-27T03:01:19.708Z,26.55
2023-09-27T03:03:21.969Z,25.45
2023-09-27T03:05:24.927Z,20.85
2023-09-27T03:07:27.129Z,32.55
2023-09-27T03:09:29.299Z,24.13
2023-09-27T03:11:32.533Z,21.67
2023-09-27T03:13:37.880Z,22.23
2023-09-27T03:15:42.150Z,23.17
2023-09-27T03:17:45.669Z,20.70
2023-09-27T03:19:49.048Z,25.38
2023-09-27T03:21:51.199Z,24.92
2023-09-27T03:23:55.282Z,24.30
2023-09-27T03:25:57.575Z,21.10
2023-09-27T03:28:00.054Z,26.40
2023-09-27T03:30:02.178Z,27.77
2023-09-27T03:32:04.474Z,22.17
2023-09-27T03:34:08.092Z,22.25
2023-09-27T03:36:10.270Z,23.70
2023-09-27T03:38:12.943Z,26.90
2023-09-27T03:40:16.156Z,24.08
2023-09-27T03:42:19.295Z,27.92
2023-09-27T03:44:21.429Z,22.88
2023-09-27T03:46:23.938Z,22.08
2023-09-27T03:48:27.721Z,17.42
2023-09-27T03:50:30.898Z,22.13
2023-09-27T03:52:33.165Z,21.13
2023-09-27T03:54:35.726Z,19.85
2023-09-27T03:56:37.912Z,21.45
2023-09-27T03:58:40.342Z,20.85
2023-09-27T04:00:42.441Z,29.55
2023-09-27T04:02:45.615Z,21.13
2023-09-27T04:04:47.942Z,22.02
2023-09-27T04:06:51.025Z,27.13
2023-09-27T04:08:53.602Z,25.45
2023-09-27T04:10:56.262Z,30.10
2023-09-27T04:12:58.502Z,22.42
2023-09-27T04:15:01.016Z,27.00
2023-09-27T04:17:04.754Z,26.45
2023-09-27T04:19:07.253Z,20.05
2023-09-27T04:21:09.764Z,25.98
2023-09-27T04:23:12.264Z,22.25
2023-09-27T04:25:16.050Z,19.75
2023-09-27T04:27:19.788Z,19.35
2023-09-27T04:29:22.114Z,20.63
2023-09-27T04:31:25.152Z,24.33
2023-09-27T04:33:27.378Z,21.10
2023-09-27T04:35:29.953Z,19.02
2023-09-27T04:37:32.151Z,30.65
2023-09-27T04:39:34.254Z,27.20
2023-09-27T04:41:36.641Z,21.60
2023-09-27T04:43:38.718Z,21.42
2023-09-27T04:45:41.185Z,23.77
2023-09-27T04:47:46.844Z,21.08
2023-09-27T04:49:49.694Z,23.85
2023-09-27T04:51:51.852Z,24.25
2023-09-27T04:53:54.283Z,22.95
2023-09-27T04:55:56.599Z,25.05
2023-09-27T04:57:59.059Z,25.10
2023-09-27T05:00:01.130Z,24.27
2023-09-27T05:02:03.856Z,33.10
2023-09-27T05:04:06.092Z,32.97
2023-09-27T05:06:08.556Z,30.40
2023-09-27T05:08:10.710Z,24.52
2023-09-27T05:10:13.705Z,27.55
2023-09-27T05:12:16.397Z,27.38
2023-09-27T05:14:19.077Z,32.72
2023-09-27T05:16:21.349Z,29.52
2023-09-27T05:18:24.118Z,25.58
2023-09-27T05:20:26.656Z,25.70
2023-09-27T05:22:29.127Z,23.30
2023-09-27T05:24:34.123Z,27.73
2023-09-27T05:26:36.667Z,27.73
2023-09-27T05:28:38.946Z,23.67
2023-09-27T05:30:43.153Z,26.63
2023-09-27T05:32:45.544Z,22.98
2023-09-27T05:34:48.086Z,23.98
2023-09-27T05:36:50.275Z,18.10
2023-09-27T05:38:53.377Z,29.17
2023-09-27T05:40:55.680Z,23.70
2023-09-27T05:42:59.881Z,17.52
2023-09-27T05:45:06.084Z,16.17
2023-09-27T05:47:09.376Z,17.55
2023-09-27T05:49:13.219Z,19.30
2023-09-27T05:51:15.665Z,22.50
2023-09-27T05:53:18.895Z,19.27
2023-09-27T05:55:21.453Z,26.95
2023-09-27T05:57:23.989Z,19.60
2023-09-27T05:59:26.483Z,21.77
2023-09-27T06:01:28.785Z,28.23
2023-09-27T06:03:32.274Z,20.80
2023-09-27T06:05:34.728Z,22.25
2023-09-27T06:07:37.145Z,25.02
2023-09-27T06:09:39.336Z,25.27
2023-09-27T06:11:41.840Z,25.27
2023-09-27T06:13:44.401Z,28.90
2023-09-27T06:15:47.384Z,31.40
2023-09-27T06:17:50.265Z,28.42
2023-09-27T06:19:52.900Z,29.17
2023-09-27T06:21:55.061Z,28.73
2023-09-27T06:23:57.484Z,15.93
2023-09-27T06:25:59.766Z,16.30
2023-09-27T06:28:02.427Z,12.68
2023-09-27T06:30:05.672Z,18.38
2023-09-27T06:32:08.251Z,15.88
2023-09-27T06:34:10.460Z,18.25
2023-09-27T06:36:13.169Z,16.33
2023-09-27T06:38:20.482Z,25.45
2023-09-27T06:40:25.468Z,23.75
2023-09-27T06:42:27.725Z,20.35
2023-09-27T06:44:30.512Z,26.65
2023-09-27T06:46:48.129Z,18.27
2023-09-27T06:48:52.502Z,21.63
2023-09-27T06:50:55.193Z,18.98
2023-09-27T06:53:15.719Z,14.05
2023-09-27T06:55:20.546Z,19.10
2023-09-27T06:57:23.069Z,20.95
2023-09-27T06:59:25.275Z,19.67
2023-09-27T07:01:27.822Z,29.88
2023-09-27T07:03:34.815Z,21.33
2023-09-27T07:05:37.640Z,14.80
2023-09-27T07:07:40.781Z,15.75
2023-09-27T07:09:43.199Z,18.80
2023-09-27T07:11:46.059Z,16.38
2023-09-27T07:13:48.655Z,31.40
2023-09-27T07:15:51.012Z,20.42
2023-09-27T07:17:53.541Z,19.95
2023-09-27T07:19:57.980Z,20.00
2023-09-27T07:22:02.549Z,17.92
2023-09-27T07:24:05.303Z,16.45
2023-09-27T07:26:08.173Z,17.77
2023-09-27T07:28:11.320Z,17.08
2023-09-27T07:30:19.230Z,19.67
2023-09-27T07:32:21.616Z,14.88
2023-09-27T07:34:24.149Z,16.30
2023-09-27T07:36:26.449Z,15.15
2023-09-27T07:38:29.015Z,19.08
2023-09-27T07:40:31.654Z,11.45
2023-09-27T07:42:34.318Z,11.13
2023-09-27T07:44:40.491Z,10.52
2023-09-27T07:46:43.124Z,12.25
2023-09-27T07:48:45.438Z,13.38
2023-09-27T07:50:47.955Z,13.48
2023-09-27T07:52:50.350Z,16.95
2023-09-27T07:54:53.221Z,10.77
2023-09-27T07:56:56.549Z,15.05
2023-09-27T07:59:00.018Z,15.60
2023-09-27T08:01:02.138Z,17.30
2023-09-27T08:03:05.161Z,14.07
2023-09-27T08:05:12.015Z,19.02
2023-09-27T08:07:14.516Z,13.05
2023-09-27T08:09:27.660Z,15.82
2023-09-27T08:11:39.239Z,10.30
2023-09-27T08:13:42.291Z,12.63
2023-09-27T08:15:45.656Z,16.80
2023-09-27T08:17:49.057Z,11.02
2023-09-27T08:19:51.576Z,12.48
2023-09-27T08:21:56.963Z,13.10
2023-09-27T08:23:59.467Z,14.80
2023-09-27T08:26:02.149Z,14.57
2023-09-27T08:28:07.262Z,13.93
2023-09-27T08:30:11.047Z,13.45
2023-09-27T08:32:13.988Z,10.52
2023-09-27T08:34:17.508Z,14.02
2023-09-27T08:36:19.779Z,14.23
2023-09-27T08:38:22.485Z,13.73
2023-09-27T08:40:24.788Z,10.50
2023-09-27T08:42:28.391Z,10.07
2023-09-27T08:44:31.796Z,11.05
2023-09-27T08:46:37.258Z,9.45
2023-09-27T08:48:40.449Z,11.50
2023-09-27T08:50:42.909Z,13.50
2023-09-27T08:52:50.238Z,13.50
2023-09-27T08:54:54.267Z,12.68
2023-09-27T08:56:57.055Z,14.57
2023-09-27T08:59:01.645Z,9.55
2023-09-27T09:01:07.846Z,9.40
2023-09-27T09:03:12.074Z,13.80
2023-09-27T09:05:16.554Z,11.75
2023-09-27T09:07:19.735Z,7.68
2023-09-27T09:09:23.921Z,8.07
2023-09-27T09:11:26.495Z,13.52
2023-09-27T09:13:28.634Z,7.18
2023-09-27T09:15:42.431Z,12.40
2023-09-27T09:17:49.183Z,10.52
2023-09-27T09:20:22.942Z,11.52
2023-09-27T09:22:25.444Z,10.07
2023-09-27T09:24:27.913Z,10.65
2023-09-27T09:26:31.612Z,10.07
2023-09-27T09:28:35.231Z,11.00
2023-09-27T09:30:39.448Z,10.07
2023-09-27T09:32:53.780Z,8.88
2023-09-27T09:34:56.252Z,10.68
2023-09-27T09:36:58.827Z,12.57
2023-09-27T09:39:05.976Z,10.27
2023-09-27T09:41:09.432Z,11.23
2023-09-27T09:43:11.770Z,10.85
2023-09-27T09:45:14.222Z,13.82
2023-09-27T09:47:16.381Z,12.70
2023-09-27T09:49:19.428Z,14.38
2023-09-27T09:51:25.497Z,8.02
2023-09-27T09:53:30.312Z,9.10
2023-09-27T09:55:52.643Z,8.82
2023-09-27T09:58:11.904Z,10.55
2023-09-27T10:00:27.282Z,14.90
2023-09-27T10:02:36.844Z,10.40
2023-09-27T10:04:39.637Z,6.25
2023-09-27T10:06:49.554Z,8.63
2023-09-27T10:08:53.572Z,12.10
2023-09-27T10:10:56.278Z,5.80
2023-09-27T10:13:00.200Z,9.70
2023-09-27T10:15:05.514Z,9.88
2023-09-27T10:17:21.824Z,8.52
2023-09-27T10:19:29.905Z,8.98
2023-09-27T10:21:33.119Z,9.02
2023-09-27T10:23:48.084Z,13.02
2023-09-27T10:25:50.299Z,9.18
2023-09-27T10:28:05.926Z,6.00
2023-09-27T10:30:08.329Z,8.23
2023-09-27T10:32:20.492Z,7.68
2023-09-27T10:34:34.827Z,9.07
2023-09-27T10:36:55.439Z,11.93
2023-09-27T10:39:06.653Z,14.05
2023-09-27T10:41:29.912Z,10.38
2023-09-27T10:43:39.710Z,12.95
2023-09-27T10:45:42.459Z,8.02
2023-09-27T10:47:45.144Z,5.35
2023-09-27T10:49:49.753Z,12.80
2023-09-27T10:51:53.403Z,10.18
2023-09-27T10:54:00.279Z,11.27
2023-09-27T10:56:02.644Z,10.68
2023-09-27T10:58:05.309Z,7.10
2023-09-27T11:00:11.958Z,5.60
2023-09-27T11:02:14.427Z,5.40
2023-09-27T11:04:16.772Z,12.95
2023-09-27T11:06:20.166Z,9.20
2023-09-27T11:08:26.547Z,10.73
2023-09-27T11:10:34.231Z,9.27
2023-09-27T11:12:36.584Z,9.60
2023-09-27T11:14:46.027Z,7.13
2023-09-27T11:16:48.314Z,10.50
2023-09-27T11:18:50.890Z,6.63
2023-09-27T11:20:53.169Z,7.60
2023-09-27T11:22:59.812Z,8.50
2023-09-27T11:25:02.276Z,6.35
2023-09-27T11:27:04.967Z,6.97
2023-09-27T11:29:08.661Z,7.90
2023-09-27T11:31:11.375Z,7.57
2023-09-27T11:33:18.143Z,6.55
2023-09-27T11:35:23.772Z,5.93
2023-09-27T11:37:27.147Z,7.68
2023-09-27T11:39:51.271Z,12.07
2023-09-27T11:42:01.201Z,17.45
2023-09-27T11:44:20.228Z,8.55
2023-09-27T11:46:29.134Z,6.73
2023-09-27T11:48:35.970Z,6.05
2023-09-27T11:50:38.906Z,12.27
2023-09-27T11:52:44.506Z,8.70
2023-09-27T11:54:46.780Z,6.72
2023-09-27T11:56:49.429Z,6.07
2023-09-27T11:58:51.887Z,7.10
2023-09-27T12:00:54.705Z,13.00
2023-09-27T12:02:58.326Z,12.13
2023-09-27T12:05:02.365Z,6.03
2023-09-27T12:07:05.082Z,11.55
2023-09-27T12:09:07.989Z,7.20
2023-09-27T12:11:10.389Z,8.02
2023-09-27T12:13:13.139Z,10.18
2023-09-27T12:15:15.351Z,6.47
2023-09-27T12:17:18.243Z,11.13
2023-09-27T12:19:21.191Z,10.68
2023-09-27T12:21:25.260Z,10.50
2023-09-27T12:23:27.755Z,10.35
2023-09-27T12:25:30.223Z,8.82
2023-09-27T12:27:32.382Z,12.23
2023-09-27T12:29:35.229Z,8.68
2023-09-27T12:31:37.514Z,8.75
2023-09-27T12:33:40.185Z,9.98
2023-09-27T12:35:43.972Z,7.40
2023-09-27T12:37:46.471Z,6.97
2023-09-27T12:39:48.655Z,7.13
2023-09-27T12:41:51.178Z,12.13
2023-09-27T12:43:53.396Z,10.77
2023-09-27T12:45:55.939Z,7.90
2023-09-27T12:47:58.572Z,8.05
2023-09-27T12:50:04.623Z,8.07
2023-09-27T12:52:07.602Z,9.85
2023-09-27T12:54:10.108Z,8.52
2023-09-27T12:56:12.862Z,8.02
2023-09-27T12:58:15.780Z,12.02
2023-09-27T13:00:18.837Z,5.80
2023-09-27T13:02:21.874Z,9.63
2023-09-27T13:04:24.139Z,6.22
2023-09-27T13:06:26.879Z,10.80
2023-09-27T13:08:29.012Z,11.10
2023-09-27T13:10:36.098Z,9.25
2023-09-27T13:12:41.454Z,11.15
2023-09-27T13:14:46.259Z,10.30
2023-09-27T13:16:48.526Z,9.23
2023-09-27T13:18:54.201Z,9.90
2023-09-27T13:20:57.004Z,6.50
2023-09-27T13:22:59.502Z,9.10
2023-09-27T13:25:01.728Z,8.88
2023-09-27T13:27:04.251Z,8.23
2023-09-27T13:29:06.416Z,14.38
2023-09-27T13:31:09.064Z,11.52
2023-09-27T13:33:11.416Z,8.00
2023-09-27T13:35:14.684Z,15.77
2023-09-27T13:37:20.756Z,9.80
2023-09-27T13:39:29.481Z,7.70
2023-09-27T13:41:32.745Z,9.95
2023-09-27T13:43:36.572Z,9.27
2023-09-27T13:45:38.985Z,6.90
2023-09-27T13:47:41.916Z,10.05
2023-09-27T13:49:44.229Z,10.27
2023-09-27T13:51:46.635Z,11.07
2023-09-27T13:53:48.922Z,14.63
2023-09-27T13:55:51.546Z,7.88
2023-09-27T13:57:53.760Z,15.63
2023-09-27T13:59:56.905Z,11.43
2023-09-27T14:01:59.176Z,13.95
2023-09-27T14:04:02.637Z,12.30
2023-09-27T14:06:05.904Z,9.38
2023-09-27T14:08:10.199Z,7.35
2023-09-27T14:10:13.855Z,6.65
2023-09-27T14:12:16.633Z,12.70
2023-09-27T14:14:19.668Z,9.15
2023-09-27T14:16:22.229Z,9.90
2023-09-27T14:18:24.599Z,15.00
2023-09-27T14:20:27.063Z,7.38
2023-09-27T14:22:29.250Z,8.45
2023-09-27T14:24:34.270Z,13.63
2023-09-27T14:26:36.886Z,9.63
2023-09-27T14:28:40.213Z,12.90
2023-09-27T14:30:42.795Z,8.85
2023-09-27T14:32:45.477Z,11.25
2023-09-27T14:34:57.879Z,13.20
2023-09-27T14:37:03.752Z,8.90
2023-09-27T14:39:12.705Z,6.50
2023-09-27T14:41:15.243Z,10.80
2023-09-27T14:43:17.687Z,11.93
2023-09-27T14:45:31.417Z,8.27
2023-09-27T14:47:34.726Z,10.20
2023-09-27T14:49:37.404Z,8.60
2023-09-27T14:51:39.888Z,9.05
2023-09-27T14:53:44.295Z,10.32
2023-09-27T14:55:46.649Z,12.82
2023-09-27T14:57:49.266Z,14.77
2023-09-27T14:59:52.191Z,9.30
2023-09-27T15:01:59.111Z,8.98
2023-09-27T15:04:01.946Z,7.03
2023-09-27T15:06:05.730Z,10.93
2023-09-27T15:08:08.057Z,9.40
2023-09-27T15:10:11.299Z,10.70
2023-09-27T15:12:13.696Z,9.93
2023-09-27T15:14:16.298Z,7.97
2023-09-27T15:16:18.631Z,12.98
2023-09-27T15:18:24.163Z,12.73
2023-09-27T15:20:27.732Z,12.82
2023-09-27T15:22:30.143Z,8.70
2023-09-27T15:24:32.575Z,10.10
2023-09-27T15:26:35.017Z,12.50
2023-09-27T15:28:37.288Z,13.25
2023-09-27T15:30:39.835Z,11.20
2023-09-27T15:32:43.845Z,12.98
2023-09-27T15:34:49.102Z,9.57
2023-09-27T15:36:52.743Z,13.43
2023-09-27T15:38:55.183Z,12.90
2023-09-27T15:40:57.587Z,13.38
2023-09-27T15:43:00.123Z,10.13
2023-09-27T15:45:09.721Z,12.63
2023-09-27T15:47:12.953Z,10.70
2023-09-27T15:49:15.180Z,14.07
2023-09-27T15:51:17.796Z,13.93
2023-09-27T15:53:20.237Z,14.65
2023-09-27T15:55:22.877Z,9.20
2023-09-27T15:57:25.140Z,16.08
2023-09-27T15:59:27.654Z,11.82
2023-09-27T16:01:30.061Z,13.77
2023-09-27T16:03:33.380Z,11.90
2023-09-27T16:05:35.600Z,16.90
2023-09-27T16:07:39.930Z,10.30
2023-09-27T16:09:42.165Z,17.25
2023-09-27T16:11:44.779Z,12.65
2023-09-27T16:13:47.010Z,16.02
2023-09-27T16:15:51.452Z,22.25
2023-09-27T16:17:53.743Z,15.00
2023-09-27T16:19:56.688Z,18.92
2023-09-27T16:21:59.024Z,13.98
2023-09-27T16:24:02.067Z,20.17
2023-09-27T16:26:04.767Z,18.75
2023-09-27T16:28:08.184Z,18.50
2023-09-27T16:30:12.344Z,17.65
2023-09-27T16:32:16.765Z,13.57
2023-09-27T16:34:19.210Z,20.90
2023-09-27T16:36:21.792Z,18.63
2023-09-27T16:38:24.139Z,16.63
2023-09-27T16:40:26.911Z,13.80
2023-09-27T16:42:29.331Z,14.15
2023-09-27T16:44:33.224Z,18.48
2023-09-27T16:46:36.043Z,20.48
2023-09-27T16:48:39.122Z,11.68
2023-09-27T16:50:41.466Z,13.70
2023-09-27T16:52:44.091Z,17.98
2023-09-27T16:54:46.631Z,15.75
2023-09-27T16:56:49.242Z,13.13
2023-09-27T16:58:51.588Z,12.60
2023-09-27T17:00:56.651Z,17.83
2023-09-27T17:02:59.588Z,17.67
2023-09-27T17:05:02.360Z,13.65
2023-09-27T17:07:04.760Z,18.25
2023-09-27T17:09:08.654Z,22.40
2023-09-27T17:11:11.373Z,16.45
2023-09-27T17:13:13.968Z,11.38
2023-09-27T17:15:16.272Z,11.75
2023-09-27T17:17:18.988Z,19.33
2023-09-27T17:19:28.719Z,10.45
2023-09-27T17:21:31.373Z,13.80
2023-09-27T17:23:33.666Z,13.65
2023-09-27T17:25:36.453Z,14.95
2023-09-27T17:27:39.087Z,12.30
2023-09-27T17:29:41.701Z,15.07
2023-09-27T17:31:44.940Z,11.43
2023-09-27T17:33:49.364Z,13.90
2023-09-27T17:35:51.986Z,13.82
2023-09-27T17:37:54.546Z,19.08
2023-09-27T17:39:56.803Z,24.17
2023-09-27T17:42:00.500Z,11.98
2023-09-27T17:44:03.550Z,16.60
2023-09-27T17:46:22.054Z,11.02
2023-09-27T17:48:24.403Z,13.65
2023-09-27T17:50:27.006Z,15.07
2023-09-27T17:52:29.280Z,10.82
2023-09-27T17:54:32.016Z,13.98
2023-09-27T17:56:34.473Z,11.05
2023-09-27T17:58:37.110Z,22.58
2023-09-27T18:00:39.450Z,12.95
2023-09-27T18:02:42.075Z,12.35
2023-09-27T18:04:44.452Z,10.52
2023-09-27T18:06:46.924Z,14.10
2023-09-27T18:08:49.149Z,13.93
2023-09-27T18:10:52.107Z,19.77
2023-09-27T18:12:54.263Z,22.85
2023-09-27T18:14:56.565Z,17.83
2023-09-27T18:16:59.299Z,18.85
2023-09-27T18:19:01.660Z,17.08
2023-09-27T18:21:05.026Z,13.48
2023-09-27T18:23:07.707Z,16.77
2023-09-27T18:25:10.715Z,19.52
2023-09-27T18:27:12.841Z,20.35
2023-09-27T18:29:15.545Z,17.65
2023-09-27T18:31:19.569Z,17.13
2023-09-27T18:33:22.328Z,18.30
2023-09-27T18:35:24.592Z,20.55
2023-09-27T18:37:27.332Z,16.48
2023-09-27T18:39:29.540Z,20.73
2023-09-27T18:41:32.070Z,19.13
2023-09-27T18:43:34.513Z,16.35
2023-09-27T18:45:37.072Z,18.80
2023-09-27T18:47:39.460Z,17.10
2023-09-27T18:49:42.430Z,24.13
2023-09-27T18:51:44.668Z,15.13
2023-09-27T18:53:47.202Z,16.55
2023-09-27T18:55:49.482Z,19.60
2023-09-27T18:57:52.391Z,16.23
2023-09-27T18:59:54.489Z,15.55
2023-09-27T19:01:57.067Z,14.07
2023-09-27T19:04:00.149Z,18.00
2023-09-27T19:06:03.457Z,19.25
2023-09-27T19:08:05.767Z,15.68
2023-09-27T19:10:12.531Z,23.42
2023-09-27T19:12:14.617Z,12.80
2023-09-27T19:14:17.142Z,20.33
2023-09-27T19:16:27.436Z,13.77
2023-09-27T19:18:34.803Z,16.15
2023-09-27T19:20:36.949Z,18.10
2023-09-27T19:22:39.406Z,18.13
2023-09-27T19:24:41.780Z,15.55
2023-09-27T19:26:44.740Z,14.13
2023-09-27T19:28:46.943Z,18.40
2023-09-27T19:30:49.608Z,17.70
2023-09-27T19:32:51.795Z,18.02
2023-09-27T19:34:54.597Z,21.48
2023-09-27T19:36:58.279Z,15.27
2023-09-27T19:39:00.918Z,13.35
2023-09-27T19:41:03.094Z,14.90
2023-09-27T19:43:05.757Z,18.63
2023-09-27T19:45:08.477Z,15.00
2023-09-27T19:47:11.260Z,20.20
2023-09-27T19:49:14.066Z,17.98
2023-09-27T19:51:24.632Z,18.15
2023-09-27T19:53:26.845Z,14.30
2023-09-27T19:55:29.827Z,13.43
2023-09-27T19:57:32.011Z,18.85
2023-09-27T19:59:34.472Z,11.57
2023-09-27T20:01:36.857Z,17.70
2023-09-27T20:03:39.326Z,20.48
2023-09-27T20:05:41.538Z,18.02
2023-09-27T20:07:47.322Z,22.13
2023-09-27T20:09:50.208Z,17.80
2023-09-27T20:11:52.739Z,15.65
2023-09-27T20:13:55.207Z,20.17
2023-09-27T20:15:57.875Z,19.55
2023-09-27T20:18:00.121Z,19.48
2023-09-27T20:20:03.176Z,22.30
2023-09-27T20:22:05.414Z,28.88
2023-09-27T20:24:08.282Z,30.58
2023-09-27T20:26:10.864Z,22.27
2023-09-27T20:28:13.269Z,24.17
2023-09-27T20:30:15.447Z,26.75
2023-09-27T20:32:18.543Z,25.90
2023-09-27T20:34:20.692Z,24.35
2023-09-27T20:36:23.176Z,33.28
2023-09-27T20:38:25.324Z,24.67
2023-09-27T20:40:27.959Z,25.50
2023-09-27T20:42:30.245Z,24.50
2023-09-27T20:44:32.847Z,25.73
2023-09-27T20:46:35.149Z,32.10
2023-09-27T20:48:37.549Z,41.28
2023-09-27T20:50:39.653Z,28.38
2023-09-27T20:52:42.200Z,30.02
2023-09-27T20:54:44.581Z,30.00
2023-09-27T20:56:48.639Z,24.58
2023-09-27T20:58:51.051Z,23.70
2023-09-27T21:00:54.016Z,23.23
2023-09-27T21:02:56.894Z,25.73
2023-09-27T21:05:00.702Z,25.67
2023-09-27T21:07:04.188Z,24.70
2023-09-27T21:09:06.735Z,25.27
2023-09-27T21:11:08.908Z,18.70
2023-09-27T21:13:11.587Z,21.38
2023-09-27T21:15:13.777Z,28.48
2023-09-27T21:17:16.283Z,23.73
2023-09-27T21:19:18.564Z,26.00
2023-09-27T21:21:22.805Z,19.75
2023-09-27T21:23:24.975Z,23.88
2023-09-27T21:25:27.476Z,24.98
2023-09-27T21:27:29.654Z,22.23
2023-09-27T21:29:32.277Z,23.98
2023-09-27T21:31:34.479Z,25.45
2023-09-27T21:33:38.028Z,25.90
2023-09-27T21:35:40.207Z,20.23
2023-09-27T21:37:42.640Z,22.80
2023-09-27T21:39:45.136Z,19.10
2023-09-27T21:41:47.596Z,23.77
2023-09-27T21:43:49.762Z,23.05
2023-09-27T21:45:52.837Z,27.30
2023-09-27T21:47:55.093Z,26.33
2023-09-27T21:49:57.560Z,21.40
2023-09-27T21:51:59.697Z,19.52
2023-09-27T21:54:02.111Z,16.10
2023-09-27T21:56:04.648Z,19.35
2023-09-27T21:58:07.103Z,25.50
2023-09-27T22:00:21.059Z,19.92
2023-09-27T22:02:23.690Z,20.40
2023-09-27T22:04:25.950Z,18.60
2023-09-27T22:06:28.350Z,21.08
2023-09-27T22:08:30.534Z,21.20
2023-09-27T22:10:36.049Z,28.38
2023-09-27T22:12:38.562Z,18.10
2023-09-27T22:14:48.310Z,23.25
2023-09-27T22:16:51.463Z,22.50
2023-09-27T22:18:53.979Z,22.50
2023-09-27T22:20:56.164Z,22.13
2023-09-27T22:23:01.642Z,23.42
2023-09-27T22:25:04.149Z,22.98
2023-09-27T22:27:09.069Z,16.60
2023-09-27T22:29:11.329Z,17.67
2023-09-27T22:31:15.539Z,17.70
2023-09-27T22:33:26.661Z,23.13
2023-09-27T22:35:29.161Z,24.70
2023-09-27T22:37:32.764Z,27.65
2023-09-27T22:39:41.091Z,17.40
2023-09-27T22:41:44.116Z,21.33
2023-09-27T22:43:50.498Z,18.40
2023-09-27T22:45:53.766Z,16.13
2023-09-27T22:47:57.562Z,21.08
2023-09-27T22:49:59.718Z,21.55
2023-09-27T22:52:02.250Z,17.52
2023-09-27T22:54:04.810Z,23.67
2023-09-27T22:56:07.216Z,34.85
2023-09-27T22:58:10.077Z,19.65
2023-09-27T23:00:13.534Z,26.42
2023-09-27T23:02:15.657Z,22.67
2023-09-27T23:04:18.166Z,31.08
2023-09-27T23:06:21.840Z,22.55
2023-09-27T23:08:28.289Z,23.52
2023-09-27T23:10:37.789Z,26.60
2023-09-27T23:12:39.976Z,24.60
2023-09-27T23:15:00.986Z,28.75
2023-09-27T23:17:29.116Z,24.70
2023-09-27T23:19:32.796Z,20.20
2023-09-27T23:21:34.940Z,17.58
2023-09-27T23:23:37.978Z,22.50
2023-09-27T23:25:41.089Z,26.02
2023-09-27T23:27:43.404Z,19.25
2023-09-27T23:29:45.956Z,20.00
2023-09-27T23:31:50.003Z,20.90
2023-09-27T23:33:53.521Z,19.45
2023-09-27T23:35:59.472Z,16.92
2023-09-27T23:38:21.908Z,19.92
2023-09-27T23:40:24.106Z,19.08
2023-09-27T23:42:27.427Z,23.10
2023-09-27T23:44:29.696Z,24.30
2023-09-27T23:46:38.576Z,25.88
2023-09-27T23:48:42.921Z,23.35
2023-09-27T23:50:45.409Z,24.50
2023-09-27T23:52:48.802Z,24.58
2023-09-27T23:55:03.681Z,18.83
2023-09-27T23:57:08.583Z,19.58
2023-09-27T23:59:21.773Z,19.70
